Sam Phoenix — D5LE3 — position and weather

sailwx.info

Track history (hours):
 
Tides and Currents Weather Stations Pressure Air Temp Water Temp Dewpoint Dewpoint Depression Visibility Wind Speed Wind Dir Waves Ship Positions

Sam Phoenix

Last reported at 2017-Nov-28 01:47 UTC. Time now 2017-Dec-18 07:07 UTC.
Position N 36°18' E 014°33'.
Warning: this ship's position is 20 days out of date.

Length 179 m; draft 9.7 m.

Type: Cargo ship. MMSI: 636017482.

Date/timePositionNaut miles runAvg speedWind from/ knotsBaromVisibWave heightAir tempDewpointWater temp
2017-Nov-28 01:47N 36°18' E 014°33'412.1
2017-Nov-28 01:28N 36°19' E 014°29'511.9
2017-Nov-28 01:00N 36°21' E 014°23'612.2
2017-Nov-28 00:30N 36°24' E 014°16'812.2
2017-Nov-27 23:52N 36°26' E 014°07'  
2017-Nov-25 19:36N 36°50' E 001°19'112.8
2017-Nov-25 19:29N 36°50' E 001°17'713.2
2017-Nov-25 18:59N 36°49' E 001°09'613.6
2017-Nov-25 18:30N 36°48' E 001°01'713.4
2017-Nov-25 18:00N 36°47' E 000°52'713.3
2017-Nov-25 17:30N 36°46' E 000°44'713.2
2017-Nov-25 17:00N 36°44' E 000°36'813.0
2017-Nov-25 16:25N 36°43' E 000°27'3812.6
2017-Nov-25 13:23N 36°37' W 000°20'612.4
2017-Nov-25 12:55N 36°36' W 000°27'1012.5
2017-Nov-25 12:06N 36°34' W 000°40'112.6
2017-Nov-25 12:00N 36°34' W 000°42'227 5.8
2017-Nov-23 20:57N 36°08' W 005°22'6 2.0
2017-Nov-23 17:58N 36°05' W 005°15'0 0.0
2017-Nov-23 05:11N 36°05' W 005°16'212.3
2017-Nov-23 05:00N 36°03' W 005°17'712.8
2017-Nov-23 04:30N 35°58' W 005°23'5711.8
2017-Nov-22 23:39N 35°57' W 006°34'  
2017-Nov-20 00:29N 37°31' W 024°03'611.9
2017-Nov-20 00:01N 37°31' W 024°10'611.8
2017-Nov-19 23:30N 37°31' W 024°18'611.6
2017-Nov-19 23:01N 37°32' W 024°25'611.6
2017-Nov-19 22:29N 37°32' W 024°33'611.4
2017-Nov-19 22:01N 37°32' W 024°39'611.5
2017-Nov-19 21:30N 37°32' W 024°47'611.7
2017-Nov-19 21:00N 37°32' W 024°54'612.0
2017-Nov-19 20:31N 37°32' W 025°02'611.8
2017-Nov-19 20:01N 37°32' W 025°09'611.8
2017-Nov-19 19:31N 37°32' W 025°17'612.0
2017-Nov-19 19:01N 37°32' W 025°24'611.8
2017-Nov-19 18:31N 37°32' W 025°32'611.7
2017-Nov-19 18:00N 37°32' W 025°39'611.9
2017-Nov-19 17:31N 37°32' W 025°46'611.9
2017-Nov-19 17:00N 37°32' W 025°54'611.8
2017-Nov-19 16:31N 37°32' W 026°01'612.0
2017-Nov-19 16:00N 37°32' W 026°09'611.8
2017-Nov-19 15:31N 37°32' W 026°16'612.0
2017-Nov-19 15:00N 37°32' W 026°24'612.1
2017-Nov-19 14:31N 37°32' W 026°32'612.0
2017-Nov-19 14:00N 37°31' W 026°39'611.6
2017-Nov-19 13:31N 37°31' W 026°46'611.6
2017-Nov-19 13:00N 37°31' W 026°54'611.5
2017-Nov-19 12:30N 37°31' W 027°01'1311.6
2017-Nov-19 11:21N 37°31' W 027°18'511.8
2017-Nov-19 10:58N 37°31' W 027°24'1011.8
2017-Nov-19 10:08N 37°31' W 027°36'111.4
2017-Nov-19 10:00N 37°31' W 027°38'611.6
2017-Nov-19 09:30N 37°31' W 027°45'611.7
2017-Nov-19 09:00N 37°31' W 027°53'612.1
2017-Nov-19 08:31N 37°30' W 028°00'611.8
2017-Nov-19 08:00N 37°30' W 028°08'611.3
2017-Nov-19 07:30N 37°30' W 028°15'611.1
2017-Nov-19 07:00N 37°30' W 028°22'510.8
2017-Nov-19 06:30N 37°30' W 028°29'611.3
2017-Nov-19 06:00N 37°30' W 028°36'611.7
2017-Nov-19 05:30N 37°30' W 028°43'611.6
2017-Nov-19 05:00N 37°29' W 028°50'611.7
2017-Nov-19 04:30N 37°30' W 028°58'611.5
2017-Nov-19 04:01N 37°30' W 029°05'611.6
2017-Nov-19 03:30N 37°29' W 029°12'611.6
2017-Nov-19 03:00N 37°29' W 029°20'611.5
2017-Nov-19 02:30N 37°29' W 029°27'611.9
2017-Nov-19 02:00N 37°29' W 029°34'612.0
2017-Nov-19 01:30N 37°29' W 029°42'1112.1
2017-Nov-19 00:36N 37°29' W 029°56'211.7
2017-Nov-19 00:28N 37°29' W 029°58'  
Track history (hours):
 
Tides and Currents Weather Stations Pressure Air Temp Water Temp Dewpoint Dewpoint Depression Visibility Wind Speed Wind Dir Waves Ship Positions

Sam Phoenix

Last reported at 2017-Nov-28 01:47 UTC. Time now 2017-Dec-18 07:07 UTC.
Position N 36°18' E 014°33'.
Warning: this ship's position is 20 days out of date.

Length 179 m; draft 9.7 m.

Type: Cargo ship. MMSI: 636017482.

Date/timePositionNaut miles runAvg speedWind from/ knotsBaromVisibWave heightAir tempDewpointWater temp
2017-Nov-28 01:47N 36°18' E 014°33'412.1
2017-Nov-28 01:28N 36°19' E 014°29'511.9
2017-Nov-28 01:00N 36°21' E 014°23'612.2
2017-Nov-28 00:30N 36°24' E 014°16'812.2
2017-Nov-27 23:52N 36°26' E 014°07'  
2017-Nov-25 19:36N 36°50' E 001°19'112.8
2017-Nov-25 19:29N 36°50' E 001°17'713.2
2017-Nov-25 18:59N 36°49' E 001°09'613.6
2017-Nov-25 18:30N 36°48' E 001°01'713.4
2017-Nov-25 18:00N 36°47' E 000°52'713.3
2017-Nov-25 17:30N 36°46' E 000°44'713.2
2017-Nov-25 17:00N 36°44' E 000°36'813.0
2017-Nov-25 16:25N 36°43' E 000°27'3812.6
2017-Nov-25 13:23N 36°37' W 000°20'612.4
2017-Nov-25 12:55N 36°36' W 000°27'1012.5
2017-Nov-25 12:06N 36°34' W 000°40'112.6
2017-Nov-25 12:00N 36°34' W 000°42'227 5.8
2017-Nov-23 20:57N 36°08' W 005°22'6 2.0
2017-Nov-23 17:58N 36°05' W 005°15'0 0.0
2017-Nov-23 05:11N 36°05' W 005°16'212.3
2017-Nov-23 05:00N 36°03' W 005°17'712.8
2017-Nov-23 04:30N 35°58' W 005°23'5711.8
2017-Nov-22 23:39N 35°57' W 006°34'  
2017-Nov-20 00:29N 37°31' W 024°03'611.9
2017-Nov-20 00:01N 37°31' W 024°10'611.8
2017-Nov-19 23:30N 37°31' W 024°18'611.6
2017-Nov-19 23:01N 37°32' W 024°25'611.6
2017-Nov-19 22:29N 37°32' W 024°33'611.4
2017-Nov-19 22:01N 37°32' W 024°39'611.5
2017-Nov-19 21:30N 37°32' W 024°47'611.7
2017-Nov-19 21:00N 37°32' W 024°54'612.0
2017-Nov-19 20:31N 37°32' W 025°02'611.8
2017-Nov-19 20:01N 37°32' W 025°09'611.8
2017-Nov-19 19:31N 37°32' W 025°17'612.0
2017-Nov-19 19:01N 37°32' W 025°24'611.8
2017-Nov-19 18:31N 37°32' W 025°32'611.7
2017-Nov-19 18:00N 37°32' W 025°39'611.9
2017-Nov-19 17:31N 37°32' W 025°46'611.9
2017-Nov-19 17:00N 37°32' W 025°54'611.8
2017-Nov-19 16:31N 37°32' W 026°01'612.0
2017-Nov-19 16:00N 37°32' W 026°09'611.8
2017-Nov-19 15:31N 37°32' W 026°16'612.0
2017-Nov-19 15:00N 37°32' W 026°24'612.1
2017-Nov-19 14:31N 37°32' W 026°32'612.0
2017-Nov-19 14:00N 37°31' W 026°39'611.6
2017-Nov-19 13:31N 37°31' W 026°46'611.6
2017-Nov-19 13:00N 37°31' W 026°54'611.5
2017-Nov-19 12:30N 37°31' W 027°01'1311.6
2017-Nov-19 11:21N 37°31' W 027°18'511.8
2017-Nov-19 10:58N 37°31' W 027°24'1011.8
2017-Nov-19 10:08N 37°31' W 027°36'111.4
2017-Nov-19 10:00N 37°31' W 027°38'611.6
2017-Nov-19 09:30N 37°31' W 027°45'611.7
2017-Nov-19 09:00N 37°31' W 027°53'612.1
2017-Nov-19 08:31N 37°30' W 028°00'611.8
2017-Nov-19 08:00N 37°30' W 028°08'611.3
2017-Nov-19 07:30N 37°30' W 028°15'611.1
2017-Nov-19 07:00N 37°30' W 028°22'510.8
2017-Nov-19 06:30N 37°30' W 028°29'611.3
2017-Nov-19 06:00N 37°30' W 028°36'611.7
2017-Nov-19 05:30N 37°30' W 028°43'611.6
2017-Nov-19 05:00N 37°29' W 028°50'611.7
2017-Nov-19 04:30N 37°30' W 028°58'611.5
2017-Nov-19 04:01N 37°30' W 029°05'611.6
2017-Nov-19 03:30N 37°29' W 029°12'611.6
2017-Nov-19 03:00N 37°29' W 029°20'611.5
2017-Nov-19 02:30N 37°29' W 029°27'611.9
2017-Nov-19 02:00N 37°29' W 029°34'612.0
2017-Nov-19 01:30N 37°29' W 029°42'1112.1
2017-Nov-19 00:36N 37°29' W 029°56'211.7
2017-Nov-19 00:28N 37°29' W 029°58'  

Dump ship's entire track history